createdAt,value
2022-09-10T00:01:26.476Z,98165.13
2022-09-10T00:03:54.624Z,98153.47
2022-09-10T00:06:25.961Z,98150.59
2022-09-10T00:08:52.912Z,98148.00
2022-09-10T00:11:20.734Z,98151.09
2022-09-10T00:13:47.289Z,98155.88
2022-09-10T00:16:15.706Z,98148.94
2022-09-10T00:18:43.562Z,98150.69
2022-09-10T00:21:13.059Z,98140.72
2022-09-10T00:23:40.367Z,98146.19
2022-09-10T00:26:26.696Z,98160.25
2022-09-10T00:28:55.611Z,98155.59
2022-09-10T00:31:23.674Z,98167.34
2022-09-10T00:33:51.206Z,98157.06
2022-09-10T00:36:24.107Z,98163.00
2022-09-10T00:38:51.862Z,98163.91
2022-09-10T00:41:21.142Z,98167.34
2022-09-10T00:43:57.967Z,98163.09
2022-09-10T00:46:25.237Z,98162.16
2022-09-10T00:48:54.036Z,98169.75
2022-09-10T00:51:20.873Z,98166.56
2022-09-10T00:53:47.322Z,98163.41
2022-09-10T00:56:14.271Z,98162.19
2022-09-10T00:58:43.099Z,98174.75
2022-09-10T01:01:09.640Z,98177.94
2022-09-10T01:03:36.406Z,98178.38
2022-09-10T01:06:03.176Z,98171.88
2022-09-10T01:08:29.707Z,98161.44
2022-09-10T01:11:23.851Z,98164.28
2022-09-10T01:13:52.884Z,98168.34
2022-09-10T01:16:32.439Z,98164.38
2022-09-10T01:19:44.157Z,98157.00
2022-09-10T01:22:32.455Z,98157.81
2022-09-10T01:25:01.889Z,98153.28
2022-09-10T01:27:44.869Z,98157.44
2022-09-10T01:30:32.931Z,98151.91
2022-09-10T01:33:44.481Z,98152.44
2022-09-10T01:36:16.733Z,98158.00
2022-09-10T01:38:43.371Z,98154.38
2022-09-10T01:41:10.267Z,98157.72
2022-09-10T01:43:36.619Z,98167.44
2022-09-10T01:46:31.746Z,98159.47
2022-09-10T01:49:18.684Z,98147.00
2022-09-10T01:52:26.297Z,98152.38
2022-09-10T01:55:21.812Z,98161.06
2022-09-10T01:58:06.959Z,98149.59
2022-09-10T02:00:38.148Z,98148.22
2022-09-10T02:03:16.143Z,98147.66
2022-09-10T02:05:45.103Z,98145.72
2022-09-10T02:08:17.377Z,98140.41
2022-09-10T02:11:01.543Z,98144.31
2022-09-10T02:13:29.864Z,98133.59
2022-09-10T02:15:56.659Z,98136.81
2022-09-10T02:18:25.327Z,98131.75
2022-09-10T02:20:58.051Z,98130.63
2022-09-10T02:23:50.636Z,98136.81
2022-09-10T02:26:17.214Z,98136.81
2022-09-10T02:28:44.287Z,98141.28
2022-09-10T02:31:11.105Z,98131.44
2022-09-10T02:33:37.601Z,98137.53
2022-09-10T02:36:04.053Z,98143.66
2022-09-10T02:38:30.509Z,98136.69
2022-09-10T02:40:58.372Z,98133.47
2022-09-10T02:43:26.323Z,98136.81
2022-09-10T02:45:57.173Z,98140.06
2022-09-10T02:48:27.412Z,98132.38
2022-09-10T02:50:54.273Z,98134.16
2022-09-10T02:53:21.054Z,98139.63
2022-09-10T02:55:48.742Z,98130.91
2022-09-10T02:58:16.493Z,98132.41
2022-09-10T03:00:43.754Z,98130.53
2022-09-10T03:03:10.253Z,98131.38
2022-09-10T03:05:38.279Z,98127.31
2022-09-10T03:08:06.171Z,98127.28
2022-09-10T03:10:33.093Z,98126.00
2022-09-10T03:12:59.801Z,98129.88
2022-09-10T03:15:26.982Z,98123.53
2022-09-10T03:17:53.477Z,98119.91
2022-09-10T03:20:22.928Z,98120.75
2022-09-10T03:22:52.093Z,98120.38
2022-09-10T03:25:19.256Z,98129.34
2022-09-10T03:27:45.752Z,98138.22
2022-09-10T03:30:12.535Z,98134.63
2022-09-10T03:32:39.049Z,98137.22
2022-09-10T03:35:06.090Z,98136.19
2022-09-10T03:37:32.513Z,98136.72
2022-09-10T03:39:58.942Z,98147.28
2022-09-10T03:42:25.398Z,98134.16
2022-09-10T03:44:52.116Z,98138.84
2022-09-10T03:47:18.557Z,98135.75
2022-09-10T03:49:44.972Z,98128.63
2022-09-10T03:52:12.698Z,98126.34
2022-09-10T03:54:39.957Z,98125.06
2022-09-10T03:57:06.431Z,98127.25
2022-09-10T03:59:32.887Z,98123.09
2022-09-10T04:01:59.353Z,98120.78
2022-09-10T04:04:25.927Z,98124.00
2022-09-10T04:06:55.418Z,98124.22
2022-09-10T04:09:21.830Z,98124.13
2022-09-10T04:11:48.243Z,98124.47
2022-09-10T04:14:15.580Z,98124.94
2022-09-10T04:16:41.979Z,98117.22
2022-09-10T04:19:08.521Z,98121.66
2022-09-10T04:21:34.886Z,98119.09
2022-09-10T04:24:01.975Z,98120.84
2022-09-10T04:26:28.514Z,98116.66
2022-09-10T04:28:54.899Z,98115.78
2022-09-10T04:31:22.517Z,98112.50
2022-09-10T04:33:49.419Z,98124.22
2022-09-10T04:36:16.044Z,98123.59
2022-09-10T04:38:43.344Z,98134.97
2022-09-10T04:41:09.958Z,98125.75
2022-09-10T04:43:36.851Z,98133.22
2022-09-10T04:46:03.313Z,98137.53
2022-09-10T04:48:29.797Z,98144.22
2022-09-10T04:51:15.366Z,98146.44
2022-09-10T04:53:42.369Z,98145.44
2022-09-10T04:56:08.880Z,98146.53
2022-09-10T04:58:38.722Z,98146.72
2022-09-10T05:01:06.146Z,98152.44
2022-09-10T05:03:33.637Z,98154.50
2022-09-10T05:06:00.012Z,98153.41
2022-09-10T05:08:26.431Z,98149.22
2022-09-10T05:10:53.339Z,98158.13
2022-09-10T05:13:19.863Z,98152.75
2022-09-10T05:15:46.498Z,98146.38
2022-09-10T05:18:12.913Z,98156.63
2022-09-10T05:20:39.384Z,98145.16
2022-09-10T05:23:06.014Z,98148.94
2022-09-10T05:25:34.403Z,98147.56
2022-09-10T05:28:01.621Z,98148.50
2022-09-10T05:30:32.638Z,98143.84
2022-09-10T05:33:00.880Z,98137.75
2022-09-10T05:35:28.835Z,98133.47
2022-09-10T05:37:58.799Z,98138.94
2022-09-10T05:40:25.402Z,98147.47
2022-09-10T05:42:52.013Z,98149.13
2022-09-10T05:45:19.336Z,98147.00
2022-09-10T05:47:46.322Z,98142.09
2022-09-10T05:50:14.219Z,98139.97
2022-09-10T05:52:40.653Z,98141.47
2022-09-10T05:55:07.615Z,98150.59
2022-09-10T05:57:34.153Z,98146.25
2022-09-10T06:00:01.194Z,98147.66
2022-09-10T06:02:27.743Z,98151.06
2022-09-10T06:04:54.275Z,98147.41
2022-09-10T06:07:20.632Z,98147.25
2022-09-10T06:09:47.133Z,98146.97
2022-09-10T06:12:13.580Z,98150.69
2022-09-10T06:14:39.984Z,98156.81
2022-09-10T06:17:06.418Z,98152.16
2022-09-10T06:19:32.811Z,98153.38
2022-09-10T06:21:59.247Z,98155.25
2022-09-10T06:24:25.808Z,98165.03
2022-09-10T06:26:52.184Z,98159.84
2022-09-10T06:29:22.540Z,98164.00
2022-09-10T06:31:49.272Z,98169.22
2022-09-10T06:34:19.057Z,98168.53
2022-09-10T06:36:49.344Z,98165.41
2022-09-10T06:39:16.773Z,98171.66
2022-09-10T06:41:46.837Z,98165.38
2022-09-10T06:44:16.279Z,98165.00
2022-09-10T06:49:31.317Z,98175.56
2022-09-10T06:51:57.754Z,98177.13
2022-09-10T06:54:26.372Z,98179.09
2022-09-10T06:56:52.768Z,98177.53
2022-09-10T06:59:19.312Z,98178.78
2022-09-10T07:01:47.310Z,98181.91
2022-09-10T07:04:14.104Z,98179.19
2022-09-10T07:06:40.477Z,98178.66
2022-09-10T07:09:06.943Z,98179.69
2022-09-10T07:11:35.932Z,98172.22
2022-09-10T07:14:06.188Z,98184.22
2022-09-10T07:16:32.579Z,98181.84
2022-09-10T07:19:00.258Z,98186.53
2022-09-10T07:21:28.212Z,98184.88
2022-09-10T07:24:01.185Z,98184.44
2022-09-10T07:26:28.248Z,98185.25
2022-09-10T07:28:55.973Z,98192.13
2022-09-10T07:31:30.871Z,98188.00
2022-09-10T07:33:58.149Z,98194.75
2022-09-10T07:36:25.292Z,98194.44
2022-09-10T07:38:57.573Z,98201.19
2022-09-10T07:41:28.019Z,98207.91
2022-09-10T07:43:55.455Z,98203.69
2022-09-10T07:46:22.414Z,98207.63
2022-09-10T07:48:52.679Z,98207.69
2022-09-10T07:51:19.420Z,98208.25
2022-09-10T07:53:50.652Z,98212.56
2022-09-10T07:56:17.529Z,98216.41
2022-09-10T07:58:44.807Z,98218.53
2022-09-10T08:01:12.717Z,98221.31
2022-09-10T08:03:40.277Z,98220.69
2022-09-10T08:06:08.333Z,98219.38
2022-09-10T08:08:38.245Z,98220.56
2022-09-10T08:11:12.967Z,98226.94
2022-09-10T08:13:41.513Z,98219.13
2022-09-10T08:16:15.084Z,98217.66
2022-09-10T08:18:43.069Z,98225.44
2022-09-10T08:21:09.641Z,98231.72
2022-09-10T08:23:37.209Z,98226.31
2022-09-10T08:26:05.270Z,98229.84
2022-09-10T08:28:32.322Z,98221.56
2022-09-10T08:31:10.262Z,98230.25
2022-09-10T08:33:41.016Z,98231.81
2022-09-10T08:36:11.963Z,98233.38
2022-09-10T08:38:39.856Z,98229.50
2022-09-10T08:41:38.300Z,98240.00
2022-09-10T08:44:23.639Z,98234.88
2022-09-10T08:47:02.764Z,98241.50
2022-09-10T08:49:43.041Z,98253.00
2022-09-10T08:52:22.409Z,98243.28
2022-09-10T08:55:17.339Z,98247.06
2022-09-10T08:57:50.530Z,98245.31
2022-09-10T09:00:26.029Z,98243.56
2022-09-10T09:03:07.886Z,98253.88
2022-09-10T09:05:45.643Z,98251.81
2022-09-10T09:08:16.600Z,98257.31
2022-09-10T09:11:15.435Z,98245.41
2022-09-10T09:14:25.190Z,98260.25
2022-09-10T09:16:59.808Z,98260.59
2022-09-10T09:19:35.075Z,98259.13
2022-09-10T09:22:28.664Z,98253.88
2022-09-10T09:25:02.905Z,98256.91
2022-09-10T09:27:38.300Z,98259.81
2022-09-10T09:30:17.239Z,98253.22
2022-09-10T09:32:46.397Z,98254.44
2022-09-10T09:35:30.660Z,98255.97
2022-09-10T09:38:10.813Z,98255.13
2022-09-10T09:40:46.099Z,98252.16
2022-09-10T09:43:51.384Z,98250.91
2022-09-10T09:46:20.231Z,98255.00
2022-09-10T09:48:48.218Z,98258.69
2022-09-10T09:51:21.053Z,98255.25
2022-09-10T09:54:12.115Z,98253.16
2022-09-10T09:56:46.331Z,98258.16
2022-09-10T09:59:26.694Z,98244.38
2022-09-10T10:01:55.649Z,98251.94
2022-09-10T10:04:26.705Z,98257.91
2022-09-10T10:06:59.020Z,98256.59
2022-09-10T10:09:31.393Z,98247.81
2022-09-10T10:12:09.254Z,98245.16
2022-09-10T10:14:41.619Z,98251.69
2022-09-10T10:17:38.682Z,98255.25
2022-09-10T10:20:08.455Z,98241.44
2022-09-10T10:22:37.476Z,98245.41
2022-09-10T10:25:06.935Z,98246.44
2022-09-10T10:27:51.291Z,98242.72
2022-09-10T10:30:18.168Z,98249.81
2022-09-10T10:32:51.484Z,98249.31
2022-09-10T10:35:33.124Z,98243.31
2022-09-10T10:38:17.248Z,98241.91
2022-09-10T10:41:05.347Z,98243.97
2022-09-10T10:43:53.354Z,98234.72
2022-09-10T10:46:22.136Z,98242.72
2022-09-10T10:49:07.183Z,98237.34
2022-09-10T10:52:03.982Z,98244.84
2022-09-10T10:55:00.554Z,98243.34
2022-09-10T10:57:48.398Z,98242.72
2022-09-10T11:00:17.388Z,98238.47
2022-09-10T11:02:50.412Z,98233.69
2022-09-10T11:05:31.171Z,98231.78
2022-09-10T11:08:15.801Z,98225.44
2022-09-10T11:10:53.794Z,98229.75
2022-09-10T11:13:25.657Z,98227.97
2022-09-10T11:16:01.201Z,98227.47
2022-09-10T11:18:34.506Z,98226.66
2022-09-10T11:21:22.107Z,98226.41
2022-09-10T11:24:01.428Z,98224.78
2022-09-10T11:26:36.488Z,98224.31
2022-09-10T11:29:34.371Z,98218.38
2022-09-10T11:32:12.979Z,98209.47
2022-09-10T11:34:54.940Z,98212.84
2022-09-10T11:37:42.281Z,98212.00
2022-09-10T11:40:18.209Z,98205.78
2022-09-10T11:42:52.209Z,98210.50
2022-09-10T11:45:36.226Z,98209.44
2022-09-10T11:48:11.220Z,98203.53
2022-09-10T11:50:51.282Z,98204.47
2022-09-10T11:53:21.751Z,98206.81
2022-09-10T11:56:34.534Z,98204.75
2022-09-10T11:59:43.145Z,98206.16
2022-09-10T12:02:37.269Z,98200.06
2022-09-10T12:05:25.744Z,98210.75
2022-09-10T12:08:06.903Z,98194.09
2022-09-10T12:11:04.542Z,98197.50
2022-09-10T12:13:33.194Z,98202.06
2022-09-10T12:16:18.518Z,98200.34
2022-09-10T12:18:50.291Z,98209.63
2022-09-10T12:21:32.403Z,98204.16
2022-09-10T12:24:02.248Z,98209.38
2022-09-10T12:26:29.110Z,98200.97
2022-09-10T12:29:04.226Z,98201.94
2022-09-10T12:32:13.515Z,98205.72
2022-09-10T12:34:40.983Z,98215.16
2022-09-10T12:37:21.361Z,98198.56
2022-09-10T12:39:48.974Z,98193.53
2022-09-10T12:42:30.510Z,98194.28
2022-09-10T12:44:57.348Z,98191.63
2022-09-10T12:47:33.130Z,98195.94
2022-09-10T12:50:04.412Z,98201.03
2022-09-10T12:52:45.981Z,98196.63
2022-09-10T12:55:21.621Z,98200.19
2022-09-10T12:58:23.844Z,98195.91
2022-09-10T13:00:56.286Z,98184.34
2022-09-10T13:03:25.549Z,98186.47
2022-09-10T13:05:55.567Z,98180.72
2022-09-10T13:08:38.220Z,98198.19
2022-09-10T13:11:05.696Z,98184.66
2022-09-10T13:13:35.732Z,98190.97
2022-09-10T13:16:04.057Z,98185.16
2022-09-10T13:18:33.839Z,98183.94
2022-09-10T13:21:22.959Z,98183.63
2022-09-10T13:23:54.015Z,98182.25
2022-09-10T13:26:33.880Z,98183.38
2022-09-10T13:29:08.398Z,98179.25
2022-09-10T13:31:39.196Z,98189.75
2022-09-10T13:34:14.447Z,98183.06
2022-09-10T13:36:59.840Z,98189.69
2022-09-10T13:40:11.453Z,98186.47
2022-09-10T13:42:47.234Z,98183.66
2022-09-10T13:45:30.429Z,98179.81
2022-09-10T13:48:02.872Z,98192.63
2022-09-10T13:50:46.046Z,98191.16
2022-09-10T13:53:14.654Z,98195.00
2022-09-10T13:55:50.510Z,98191.53
2022-09-10T13:58:21.204Z,98198.78
2022-09-10T14:01:00.869Z,98199.81
2022-09-10T14:03:33.286Z,98202.69
2022-09-10T14:06:05.054Z,98204.19
2022-09-10T14:08:38.773Z,98200.66
2022-09-10T14:11:19.292Z,98205.06
2022-09-10T14:13:45.647Z,98200.09
2022-09-10T14:16:20.154Z,98185.34
2022-09-10T14:18:53.541Z,98188.22
2022-09-10T14:21:26.867Z,98189.81
2022-09-10T14:23:58.854Z,98184.19
2022-09-10T14:26:31.621Z,98187.44
2022-09-10T14:29:25.126Z,98198.97
2022-09-10T14:31:51.655Z,98201.50
2022-09-10T14:34:32.263Z,98204.84
2022-09-10T14:37:22.184Z,98209.84
2022-09-10T14:39:48.776Z,98216.94
2022-09-10T14:42:27.416Z,98215.69
2022-09-10T14:44:54.326Z,98219.97
2022-09-10T14:47:29.984Z,98219.19
2022-09-10T14:50:31.760Z,98226.53
2022-09-10T14:52:58.752Z,98231.16
2022-09-10T14:55:28.231Z,98216.66
2022-09-10T14:57:55.706Z,98218.41
2022-09-10T15:00:23.395Z,98213.31
2022-09-10T15:02:51.844Z,98205.09
2022-09-10T15:05:18.485Z,98198.13
2022-09-10T15:07:45.522Z,98193.50
2022-09-10T15:10:12.351Z,98198.34
2022-09-10T15:12:41.657Z,98195.34
2022-09-10T15:15:17.473Z,98194.44
2022-09-10T15:17:44.477Z,98191.09
2022-09-10T15:20:16.815Z,98186.38
2022-09-10T15:22:44.208Z,98175.44
2022-09-10T15:25:33.844Z,98176.59
2022-09-10T15:28:02.584Z,98167.72
2022-09-10T15:30:28.971Z,98164.06
2022-09-10T15:32:55.376Z,98165.22
2022-09-10T15:35:23.218Z,98175.84
2022-09-10T15:37:51.171Z,98176.84
2022-09-10T15:40:17.675Z,98171.22
2022-09-10T15:42:44.245Z,98172.44
2022-09-10T15:45:11.006Z,98175.00
2022-09-10T15:47:37.459Z,98185.81
2022-09-10T15:50:04.738Z,98175.22
2022-09-10T15:52:31.164Z,98174.19
2022-09-10T15:54:57.641Z,98176.84
2022-09-10T15:57:24.105Z,98181.16
2022-09-10T15:59:50.513Z,98180.78
2022-09-10T16:02:18.377Z,98179.53
2022-09-10T16:04:44.816Z,98174.53
2022-09-10T16:07:11.564Z,98171.25
2022-09-10T16:09:37.967Z,98175.78
2022-09-10T16:12:04.631Z,98175.56
2022-09-10T16:14:32.618Z,98186.34
2022-09-10T16:16:59.377Z,98188.56
2022-09-10T16:19:25.739Z,98186.59
2022-09-10T16:21:52.983Z,98181.34
2022-09-10T16:24:19.567Z,98190.88
2022-09-10T16:26:47.842Z,98179.44
2022-09-10T16:29:16.842Z,98195.88
2022-09-10T16:31:45.969Z,98198.03
2022-09-10T16:34:18.754Z,98190.97
2022-09-10T16:36:48.680Z,98197.75
2022-09-10T16:39:16.392Z,98196.09
2022-09-10T16:41:45.226Z,98207.97
2022-09-10T16:44:14.690Z,98209.81
2022-09-10T16:46:42.332Z,98209.16
2022-09-10T16:49:14.500Z,98202.66
2022-09-10T16:51:42.812Z,98211.88
2022-09-10T16:54:09.926Z,98211.34
2022-09-10T16:56:42.200Z,98207.25
2022-09-10T16:59:14.883Z,98207.75
2022-09-10T17:01:48.152Z,98202.03
2022-09-10T17:04:19.957Z,98209.22
2022-09-10T17:06:48.904Z,98209.84
2022-09-10T17:09:15.714Z,98219.09
2022-09-10T17:11:42.124Z,98216.53
2022-09-10T17:14:08.642Z,98209.66
2022-09-10T17:16:44.748Z,98202.19
2022-09-10T17:19:13.789Z,98208.28
2022-09-10T17:24:11.346Z,98195.91
2022-09-10T17:26:39.026Z,98198.19
2022-09-10T17:29:10.874Z,98197.00
2022-09-10T17:31:37.294Z,98196.00
2022-09-10T17:34:04.328Z,98192.47
2022-09-10T17:36:32.184Z,98195.66
2022-09-10T17:38:59.156Z,98200.34
2022-09-10T17:41:28.484Z,98198.72
2022-09-10T17:43:55.639Z,98203.44
2022-09-10T17:46:22.679Z,98202.78
2022-09-10T17:48:52.554Z,98207.28
2022-09-10T17:51:24.022Z,98206.28
2022-09-10T17:53:52.086Z,98205.50
2022-09-10T17:56:19.694Z,98204.47
2022-09-10T17:58:47.288Z,98204.91
2022-09-10T18:01:23.648Z,98207.31
2022-09-10T18:03:50.948Z,98223.09
2022-09-10T18:06:17.460Z,98219.34
2022-09-10T18:08:44.101Z,98217.44
2022-09-10T18:11:15.189Z,98217.03
2022-09-10T18:13:42.174Z,98221.47
2022-09-10T18:16:11.558Z,98229.69
2022-09-10T18:18:39.272Z,98231.16
2022-09-10T18:21:16.766Z,98230.19
2022-09-10T18:23:44.273Z,98227.53
2022-09-10T18:26:19.260Z,98232.44
2022-09-10T18:29:06.397Z,98247.66
2022-09-10T18:31:35.423Z,98235.81
2022-09-10T18:34:02.349Z,98245.47
2022-09-10T18:36:28.799Z,98239.47
2022-09-10T18:38:55.350Z,98244.69
2022-09-10T18:41:28.065Z,98243.34
2022-09-10T18:43:58.307Z,98241.81
2022-09-10T18:46:26.221Z,98243.00
2022-09-10T18:48:53.446Z,98233.13
2022-09-10T18:51:22.409Z,98230.44
2022-09-10T18:53:52.381Z,98235.97
2022-09-10T18:56:20.633Z,98231.88
2022-09-10T18:58:51.852Z,98240.84
2022-09-10T19:01:18.690Z,98236.88
2022-09-10T19:03:47.542Z,98238.38
2022-09-10T19:06:20.324Z,98245.19
2022-09-10T19:08:55.027Z,98249.16
2022-09-10T19:11:24.554Z,98246.34
2022-09-10T19:13:53.827Z,98246.56
2022-09-10T19:16:23.250Z,98256.78
2022-09-10T19:18:57.613Z,98258.44
2022-09-10T19:21:26.339Z,98263.03
2022-09-10T19:23:59.350Z,98259.53
2022-09-10T19:26:28.509Z,98264.50
2022-09-10T19:28:59.037Z,98269.53
2022-09-10T19:31:27.190Z,98273.88
2022-09-10T19:33:58.034Z,98276.56
2022-09-10T19:36:30.322Z,98278.91
2022-09-10T19:38:57.380Z,98279.81
2022-09-10T19:41:25.389Z,98279.63
2022-09-10T19:43:53.328Z,98282.09
2022-09-10T19:46:21.290Z,98283.50
2022-09-10T19:48:48.638Z,98279.91
2022-09-10T19:51:17.436Z,98281.88
2022-09-10T19:53:44.131Z,98280.81
2022-09-10T19:56:20.292Z,98281.19
2022-09-10T19:58:49.899Z,98284.13
2022-09-10T20:01:28.268Z,98279.41
2022-09-10T20:03:56.168Z,98292.19
2022-09-10T20:06:25.483Z,98301.69
2022-09-10T20:08:52.787Z,98295.59
2022-09-10T20:11:25.014Z,98303.16
2022-09-10T20:14:02.658Z,98304.19
2022-09-10T20:16:30.112Z,98299.00
2022-09-10T20:18:56.939Z,98307.50
2022-09-10T20:21:26.702Z,98300.34
2022-09-10T20:23:56.234Z,98307.81
2022-09-10T20:26:25.360Z,98308.41
2022-09-10T20:28:55.693Z,98311.41
2022-09-10T20:31:24.445Z,98315.06
2022-09-10T20:33:56.411Z,98308.78
2022-09-10T20:36:24.020Z,98303.34
2022-09-10T20:38:52.087Z,98308.16
2022-09-10T20:41:18.788Z,98310.50
2022-09-10T20:43:51.611Z,98316.97
2022-09-10T20:46:20.141Z,98308.41
2022-09-10T20:48:49.245Z,98306.06
2022-09-10T20:51:17.769Z,98301.22
2022-09-10T20:53:45.130Z,98304.56
2022-09-10T20:56:17.549Z,98301.63
2022-09-10T20:58:44.840Z,98306.22
2022-09-10T21:01:17.032Z,98304.28
2022-09-10T21:03:43.616Z,98293.19
2022-09-10T21:06:12.380Z,98304.50
2022-09-10T21:08:40.862Z,98297.84
2022-09-10T21:11:12.738Z,98299.28
2022-09-10T21:13:50.373Z,98302.19
2022-09-10T21:16:38.625Z,98294.09
2022-09-10T21:19:10.886Z,98297.53
2022-09-10T21:21:39.395Z,98300.03
2022-09-10T21:24:12.471Z,98307.47
2022-09-10T21:26:40.556Z,98304.13
2022-09-10T21:29:10.712Z,98300.59
2022-09-10T21:31:37.127Z,98308.75
2022-09-10T21:34:04.627Z,98309.69
2022-09-10T21:36:32.782Z,98314.97
2022-09-10T21:39:00.903Z,98316.91
2022-09-10T21:41:30.959Z,98319.09
2022-09-10T21:43:58.451Z,98329.31
2022-09-10T21:46:24.923Z,98324.75
2022-09-10T21:48:51.326Z,98327.09
2022-09-10T21:51:19.707Z,98324.75
2022-09-10T21:53:46.819Z,98338.06
2022-09-10T21:56:15.787Z,98325.59
2022-09-10T21:58:43.776Z,98331.34
2022-09-10T22:01:12.413Z,98341.78
2022-09-10T22:03:39.834Z,98336.06
2022-09-10T22:06:07.152Z,98338.91
2022-09-10T22:08:34.328Z,98335.00
2022-09-10T22:11:06.441Z,98338.28
2022-09-10T22:13:33.682Z,98343.09
2022-09-10T22:16:00.143Z,98344.59
2022-09-10T22:18:26.671Z,98331.06
2022-09-10T22:21:03.455Z,98341.25
2022-09-10T22:23:32.676Z,98342.53
2022-09-10T22:26:10.874Z,98341.91
2022-09-10T22:28:38.371Z,98339.56
2022-09-10T22:31:17.070Z,98345.88
2022-09-10T22:33:45.633Z,98342.97
2022-09-10T22:36:17.309Z,98351.03
2022-09-10T22:38:44.125Z,98356.00
2022-09-10T22:41:10.621Z,98369.63
2022-09-10T22:43:38.398Z,98367.88
2022-09-10T22:46:09.215Z,98365.28
2022-09-10T22:48:40.939Z,98368.06
2022-09-10T22:51:11.223Z,98372.25
2022-09-10T22:53:40.119Z,98383.16
2022-09-10T22:56:08.049Z,98380.84
2022-09-10T22:58:36.035Z,98387.97
2022-09-10T23:01:08.055Z,98386.88
2022-09-10T23:03:34.963Z,98387.25
2022-09-10T23:06:22.217Z,98388.28
2022-09-10T23:08:51.827Z,98397.72
2022-09-10T23:11:25.391Z,98409.78
2022-09-10T23:13:54.540Z,98409.41
2022-09-10T23:16:28.685Z,98413.69
2022-09-10T23:18:57.391Z,98409.88
2022-09-10T23:21:26.040Z,98403.91
2022-09-10T23:23:55.267Z,98418.22
2022-09-10T23:26:22.979Z,98421.00
2022-09-10T23:28:50.556Z,98419.13
2022-09-10T23:31:21.040Z,98423.31
2022-09-10T23:33:59.059Z,98423.13
2022-09-10T23:36:27.272Z,98417.56
2022-09-10T23:38:53.927Z,98418.09
2022-09-10T23:41:20.358Z,98426.56
2022-09-10T23:43:47.289Z,98429.78
2022-09-10T23:46:14.325Z,98436.00
2022-09-10T23:48:45.808Z,98435.72
2022-09-10T23:51:14.353Z,98433.13
2022-09-10T23:53:42.525Z,98434.34
2022-09-10T23:56:09.013Z,98438.03
2022-09-10T23:58:35.376Z,98433.47
